Time;durP1;ratioP1;P1;durP2;ratioP2;P2;SDS_P1;SDS_P2;PMS_P1;PMS_P2;Temp;Humidity;BMP_temperature;BMP_pressure;BME280_temperature;BME280_humidity;BME280_pressure;Samples;Min_cycle;Max_cycle;Signal;HPM_P1;HPM_P2
2021/04/12 00:00:46;;;;;;;3.47;1.55;;;19.30;35.30;;;;;;5072773;28;20024;-66
2021/04/12 00:03:22;;;;;;;3.80;1.55;;;19.40;35.20;;;;;;5072867;28;20487;-66
2021/04/12 00:06:13;;;;;;;3.83;1.67;;;19.30;35.20;;;;;;5072762;28;20036;-66
2021/04/12 00:08:45;;;;;;;4.85;2.00;;;19.30;35.20;;;;;;5072605;28;20400;-66
2021/04/12 00:11:39;;;;;;;4.35;1.75;;;19.30;35.20;;;;;;5072820;28;20358;-65
2021/04/12 00:14:17;;;;;;;4.47;1.58;;;19.30;35.20;;;;;;5073693;28;20391;-64
2021/04/12 00:16:58;;;;;;;3.47;1.55;;;19.30;35.20;;;;;;5076555;28;20036;-65
2021/04/12 00:20:00;;;;;;;3.40;1.58;;;19.40;35.20;;;;;;5072956;28;20017;-65
2021/04/12 00:22:41;;;;;;;4.10;1.90;;;19.30;35.20;;;;;;5072388;28;20058;-65
2021/04/12 00:25:10;;;;;;;4.97;1.90;;;19.30;35.20;;;;;;5072750;28;20021;-65
2021/04/12 00:27:56;;;;;;;4.90;2.00;;;19.30;35.20;;;;;;5076094;28;20024;-65
2021/04/12 00:30:28;;;;;;;6.03;2.35;;;19.30;35.20;;;;;;5076331;28;20052;-65
2021/04/12 00:33:05;;;;;;;4.25;2.00;;;19.30;35.20;;;;;;5076724;28;20032;-66
2021/04/12 00:35:34;;;;;;;3.97;1.80;;;19.20;35.20;;;;;;5074909;28;20391;-65
2021/04/12 00:38:15;;;;;;;3.53;1.73;;;19.20;35.20;;;;;;5076041;28;20024;-66
2021/04/12 00:40:49;;;;;;;3.72;1.85;;;19.30;35.20;;;;;;5075933;28;20028;-65
2021/04/12 00:43:31;;;;;;;5.50;2.78;;;19.30;35.10;;;;;;5075944;28;20103;-65
2021/04/12 00:46:34;;;;;;;4.78;1.98;;;19.30;35.10;;;;;;5076068;28;20035;-65
2021/04/12 00:49:02;;;;;;;4.20;2.17;;;19.20;35.10;;;;;;5075715;28;20025;-65
2021/04/12 00:51:47;;;;;;;4.25;2.00;;;19.20;35.10;;;;;;5075577;28;20495;-65
2021/04/12 00:54:36;;;;;;;4.75;2.17;;;19.20;35.10;;;;;;5076011;28;20020;-65
2021/04/12 00:57:32;;;;;;;5.72;2.05;;;19.20;35.10;;;;;;5075924;28;20028;-65
2021/04/12 00:59:57;;;;;;;5.60;2.28;;;19.20;35.10;;;;;;5070912;28;20060;-65
2021/04/12 01:02:48;;;;;;;4.63;2.45;;;19.20;35.10;;;;;;5075291;28;20543;-65
2021/04/12 01:05:40;;;;;;;5.35;2.50;;;19.20;35.20;;;;;;5070552;28;20146;-64
2021/04/12 01:08:43;;;;;;;5.97;2.42;;;19.20;35.10;;;;;;5076161;28;20033;-64
2021/04/12 01:11:26;;;;;;;5.65;2.58;;;19.20;35.10;;;;;;5075559;28;20031;-65
2021/04/12 01:14:15;;;;;;;4.72;2.50;;;19.20;35.10;;;;;;5074226;28;20551;-65
2021/04/12 01:17:09;;;;;;;6.25;2.55;;;19.20;35.10;;;;;;5075447;28;20723;-65
2021/04/12 01:19:53;;;;;;;5.10;2.55;;;19.20;35.10;;;;;;5075648;28;20062;-65
2021/04/12 01:22:24;;;;;;;5.22;2.70;;;19.10;35.00;;;;;;5075524;28;20113;-65
2021/04/12 01:25:10;;;;;;;6.60;2.60;;;19.20;35.10;;;;;;5075681;28;20518;-64
2021/04/12 01:27:55;;;;;;;6.38;2.67;;;19.20;35.00;;;;;;5079160;28;20445;-65
2021/04/12 01:30:57;;;;;;;5.53;2.80;;;19.20;35.10;;;;;;5085571;28;20035;-65
2021/04/12 01:33:42;;;;;;;6.53;2.95;;;19.10;35.00;;;;;;5038407;28;20500;-64
2021/04/12 01:36:40;;;;;;;6.63;2.70;;;19.20;35.00;;;;;;5075596;28;20036;-64
2021/04/12 01:39:39;;;;;;;5.63;2.20;;;19.20;35.10;;;;;;5074008;28;20078;-66
2021/04/12 01:42:31;;;;;;;6.03;2.90;;;19.20;35.00;;;;;;5075184;28;20028;-65
2021/04/12 01:45:21;;;;;;;5.95;2.97;;;19.10;35.00;;;;;;5080987;28;20020;-65
2021/04/12 01:48:20;;;;;;;4.57;2.25;;;19.10;35.00;;;;;;5074982;28;20399;-65
2021/04/12 01:51:23;;;;;;;6.60;3.00;;;19.10;35.00;;;;;;5074887;28;20046;-65
2021/04/12 01:54:03;;;;;;;5.60;2.63;;;19.10;35.10;;;;;;5074839;28;20441;-66
2021/04/12 01:56:39;;;;;;;5.70;2.70;;;19.10;35.00;;;;;;5074485;28;20039;-64
2021/04/12 01:59:10;;;;;;;5.88;2.47;;;19.10;35.00;;;;;;5074795;28;20024;-65
2021/04/12 02:01:46;;;;;;;7.07;3.17;;;19.10;35.00;;;;;;5074555;28;20133;-65
2021/04/12 02:04:26;;;;;;;6.80;3.30;;;19.10;35.00;;;;;;5074305;28;20032;-66
2021/04/12 02:07:09;;;;;;;5.90;3.10;;;19.10;34.90;;;;;;5074559;28;20024;-65
2021/04/12 02:10:11;;;;;;;6.68;3.22;;;19.10;35.00;;;;;;5074492;28;20025;-66
2021/04/12 02:13:15;;;;;;;6.07;2.92;;;19.10;35.10;;;;;;5074171;28;20028;-65
2021/04/12 02:15:50;;;;;;;8.95;3.22;;;19.10;35.00;;;;;;5032077;28;20120;-65
2021/04/12 02:18:34;;;;;;;6.20;3.20;;;19.00;35.00;;;;;;5032225;28;20160;-64
2021/04/12 02:21:15;;;;;;;5.53;2.92;;;19.10;35.00;;;;;;5059557;28;20037;-66
2021/04/12 02:23:57;;;;;;;7.78;3.83;;;19.00;35.00;;;;;;5074222;28;20077;-64
2021/04/12 02:26:53;;;;;;;8.35;3.88;;;19.10;34.90;;;;;;5074023;28;20384;-64
2021/04/12 02:29:25;;;;;;;6.40;3.20;;;19.00;35.00;;;;;;5073969;28;20024;-63
2021/04/12 02:32:05;;;;;;;6.95;3.70;;;19.00;35.00;;;;;;5073933;28;20047;-64
2021/04/12 02:34:45;;;;;;;6.15;3.67;;;19.00;35.00;;;;;;5073974;28;20491;-64
2021/04/12 02:37:34;;;;;;;6.85;3.58;;;19.00;34.90;;;;;;5073886;28;20033;-65
2021/04/12 02:40:17;;;;;;;7.72;3.83;;;19.00;34.90;;;;;;5073760;28;20107;-65
2021/04/12 02:42:43;;;;;;;6.05;2.88;;;19.00;34.90;;;;;;5073783;28;20029;-64
2021/04/12 02:45:32;;;;;;;6.47;3.50;;;19.00;34.90;;;;;;5073685;28;20028;-64
2021/04/12 02:48:20;;;;;;;6.88;3.22;;;19.00;34.90;;;;;;5073743;28;20036;-64
2021/04/12 02:51:03;;;;;;;8.48;3.70;;;19.00;34.90;;;;;;5073810;28;20044;-64
2021/04/12 02:53:49;;;;;;;8.00;3.90;;;19.00;34.90;;;;;;5074075;28;20021;-65
2021/04/12 02:56:38;;;;;;;7.75;4.03;;;19.00;34.90;;;;;;5073703;28;20031;-65
2021/04/12 02:59:30;;;;;;;6.20;3.22;;;19.00;34.90;;;;;;5073623;28;20017;-64
2021/04/12 03:02:33;;;;;;;6.57;3.42;;;19.00;34.80;;;;;;5073524;28;20020;-65
2021/04/12 03:05:16;;;;;;;7.05;3.33;;;19.00;34.80;;;;;;5073626;28;20028;-64
2021/04/12 03:08:12;;;;;;;7.32;3.63;;;19.00;34.90;;;;;;5073530;28;20024;-64
2021/04/12 03:11:22;;;;;;;6.38;3.17;;;19.00;34.90;;;;;;5073997;28;20020;-64
2021/04/12 03:14:22;;;;;;;7.00;3.65;;;19.00;34.90;;;;;;5057166;28;20071;-64
2021/04/12 03:16:57;;;;;;;7.65;3.53;;;18.90;34.90;;;;;;5073158;28;20037;-64
2021/04/12 03:19:58;;;;;;;7.63;3.90;;;19.00;34.90;;;;;;5073253;28;20025;-63
2021/04/12 03:22:56;;;;;;;6.60;3.10;;;19.00;34.80;;;;;;5073054;28;20098;-64
2021/04/12 03:26:04;;;;;;;7.47;3.78;;;19.00;34.90;;;;;;5073341;28;20112;-64
2021/04/12 03:28:53;;;;;;;6.85;3.55;;;19.00;34.90;;;;;;5073060;28;20028;-64
2021/04/12 03:31:23;;;;;;;6.85;3.35;;;19.00;34.80;;;;;;5073219;28;20024;-64
2021/04/12 03:34:15;;;;;;;5.95;2.85;;;18.90;34.80;;;;;;5073456;28;20028;-64
2021/04/12 03:37:05;;;;;;;7.38;3.83;;;18.90;34.80;;;;;;5073189;28;20127;-64
2021/04/12 03:39:59;;;;;;;6.57;3.40;;;18.90;34.80;;;;;;5072770;28;20027;-65
2021/04/12 03:42:43;;;;;;;6.40;3.35;;;18.90;34.90;;;;;;5073124;28;20060;-64
2021/04/12 03:45:18;;;;;;;6.00;3.20;;;18.90;34.80;;;;;;5073418;28;20012;-63
2021/04/12 03:48:02;;;;;;;7.03;3.60;;;18.90;34.90;;;;;;5073046;28;20366;-63
2021/04/12 03:51:01;;;;;;;5.78;3.05;;;18.90;34.80;;;;;;5073118;28;20074;-65
2021/04/12 03:54:08;;;;;;;8.23;3.72;;;18.90;34.80;;;;;;5073035;28;20484;-65
2021/04/12 03:56:42;;;;;;;7.10;3.72;;;18.90;34.80;;;;;;5067094;28;20049;-65
2021/04/12 03:59:45;;;;;;;6.63;3.05;;;18.90;34.80;;;;;;5072723;28;20021;-64
2021/04/12 04:02:39;;;;;;;6.88;3.75;;;18.90;34.90;;;;;;5075810;28;20036;-65
2021/04/12 04:05:10;;;;;;;7.18;3.58;;;18.90;34.80;;;;;;5076693;28;20020;-65
2021/04/12 04:07:57;;;;;;;6.68;3.05;;;18.90;34.90;;;;;;5076749;28;20028;-65
2021/04/12 04:11:07;;;;;;;6.75;3.60;;;18.90;34.80;;;;;;5076611;28;20518;-65
2021/04/12 04:13:41;;;;;;;5.78;3.20;;;18.90;34.80;;;;;;5070539;28;20036;-65
2021/04/12 04:16:28;;;;;;;7.30;3.72;;;18.90;34.80;;;;;;5082105;28;20033;-66
2021/04/12 04:19:24;;;;;;;6.95;3.50;;;18.90;34.70;;;;;;5077517;28;20025;-65
2021/04/12 04:22:19;;;;;;;6.75;3.35;;;18.90;34.70;;;;;;5076960;28;20044;-66
2021/04/12 04:25:16;;;;;;;6.93;3.50;;;19.00;34.70;;;;;;5076864;28;20048;-63
2021/04/12 04:28:10;;;;;;;7.20;3.33;;;19.00;34.70;;;;;;5076232;28;20110;-65
2021/04/12 04:31:10;;;;;;;5.65;3.00;;;19.00;34.50;;;;;;5076760;28;20097;-65
2021/04/12 04:33:44;;;;;;;5.43;2.90;;;19.00;34.60;;;;;;5077060;28;20155;-65
2021/04/12 04:36:30;;;;;;;6.45;2.78;;;19.10;34.60;;;;;;5077216;28;20050;-65
2021/04/12 04:39:33;;;;;;;8.55;4.13;;;19.10;34.60;;;;;;5082945;28;20162;-65
2021/04/12 04:42:20;;;;;;;6.40;3.28;;;19.10;34.50;;;;;;5076331;28;20052;-63
2021/04/12 04:45:22;;;;;;;7.18;3.20;;;19.10;34.50;;;;;;5076161;28;20067;-66
2021/04/12 04:48:43;;;;;;;6.50;3.35;;;19.10;34.50;;;;;;5076050;28;20085;-64
2021/04/12 04:51:18;;;;;;;6.63;3.45;;;19.10;34.50;;;;;;5059689;28;20047;-64
2021/04/12 04:54:09;;;;;;;;;;;19.20;34.40;;;;;;5075188;28;20032;-65
2021/04/12 04:57:09;;;;;;;6.50;3.22;;;19.20;34.40;;;;;;5059914;28;20276;-65
2021/04/12 04:59:55;;;;;;;6.78;3.13;;;19.20;34.40;;;;;;5076269;28;20027;-64
2021/04/12 05:02:58;;;;;;;5.85;2.95;;;19.20;34.40;;;;;;5075907;28;20017;-64
2021/04/12 05:05:37;;;;;;;8.73;3.20;;;19.20;34.50;;;;;;5075451;28;20388;-64
2021/04/12 05:08:39;;;;;;;6.10;3.30;;;19.20;34.40;;;;;;5075526;28;20166;-65
2021/04/12 05:11:29;;;;;;;6.88;2.95;;;19.20;34.40;;;;;;5075993;28;20024;-65
2021/04/12 05:14:31;;;;;;;5.68;2.92;;;19.20;34.40;;;;;;5075757;28;20024;-64
2021/04/12 05:17:23;;;;;;;6.85;3.10;;;19.30;34.40;;;;;;5075518;28;20040;-64
2021/04/12 05:19:57;;;;;;;6.40;3.65;;;19.30;34.30;;;;;;5075604;28;20095;-65
2021/04/12 05:22:38;;;;;;;;;;;19.30;34.30;;;;;;5076009;28;20101;-64
2021/04/12 05:25:25;;;;;;;7.88;3.45;;;19.30;34.40;;;;;;5075490;28;19995;-64
2021/04/12 05:28:27;;;;;;;6.07;3.33;;;19.30;34.30;;;;;;5075250;28;20025;-64
2021/04/12 05:30:56;;;;;;;6.13;3.13;;;19.30;34.30;;;;;;5075207;28;20043;-64
2021/04/12 05:33:41;;;;;;;6.20;2.72;;;19.30;34.30;;;;;;5075102;28;20059;-64
2021/04/12 05:36:23;;;;;;;6.65;3.13;;;19.30;34.40;;;;;;5074986;28;20037;-64
2021/04/12 05:38:58;;;;;;;8.55;3.17;;;19.40;34.30;;;;;;5075071;28;20023;-65
2021/04/12 05:41:31;;;;;;;;;;;19.30;34.30;;;;;;5075729;28;20103;-65
2021/04/12 05:44:07;;;;;;;5.93;3.00;;;19.40;34.30;;;;;;5075125;28;19916;-64
2021/04/12 05:46:46;;;;;;;5.97;2.60;;;19.40;34.30;;;;;;5074891;28;20031;-64
2021/04/12 05:49:30;;;;;;;5.78;2.50;;;19.40;34.30;;;;;;5075004;28;20024;-64
2021/04/12 05:52:23;;;;;;;5.07;2.47;;;19.40;34.40;;;;;;5074847;28;20491;-65
2021/04/12 05:55:15;;;;;;;6.65;3.00;;;19.40;34.30;;;;;;5074652;28;20029;-65
2021/04/12 05:58:00;;;;;;;5.57;2.70;;;19.40;34.20;;;;;;5074668;28;20082;-65
2021/04/12 06:00:47;;;;;;;5.05;2.58;;;19.40;34.20;;;;;;5074881;28;20025;-65
2021/04/12 06:03:39;;;;;;;8.43;3.10;;;19.50;34.20;;;;;;5074535;28;20071;-65
2021/04/12 06:06:35;;;;;;;5.93;2.83;;;19.50;34.20;;;;;;5074496;28;20108;-64
2021/04/12 06:09:49;;;;;;;6.05;2.67;;;19.50;34.20;;;;;;5074333;28;20047;-64
2021/04/12 06:12:47;;;;;;;5.75;2.67;;;19.50;34.10;;;;;;5070485;28;20305;-65
2021/04/12 06:15:42;;;;;;;6.00;3.13;;;19.50;34.20;;;;;;5074320;28;20029;-65
2021/04/12 06:18:07;;;;;;;6.32;2.80;;;19.50;34.20;;;;;;5074062;28;20032;-65
2021/04/12 06:20:50;;;;;;;6.10;2.70;;;19.50;34.20;;;;;;5071882;28;20519;-65
2021/04/12 06:23:21;;;;;;;5.75;2.50;;;19.50;34.10;;;;;;5057511;28;20150;-64
2021/04/12 06:25:53;;;;;;;5.63;2.75;;;19.50;34.10;;;;;;5063337;28;20029;-64
2021/04/12 06:28:36;;;;;;;7.45;2.70;;;19.50;34.10;;;;;;5069236;28;20028;-63
2021/04/12 06:31:50;;;;;;;6.28;2.95;;;19.50;34.20;;;;;;5080850;28;20017;-64
2021/04/12 06:34:34;;;;;;;6.57;2.83;;;19.50;34.20;;;;;;5014583;28;20043;-63
2021/04/12 06:37:36;;;;;;;7.30;2.70;;;19.60;34.20;;;;;;5063125;28;20047;-63
2021/04/12 06:40:17;;;;;;;5.55;2.50;;;19.60;34.30;;;;;;5069956;28;20122;-63
2021/04/12 06:43:07;;;;;;;6.30;2.70;;;19.60;34.20;;;;;;5057041;28;20590;-63
2021/04/12 06:46:10;;;;;;;5.72;2.20;;;19.60;34.20;;;;;;5059423;28;20473;-63
2021/04/12 06:49:17;;;;;;;6.97;2.70;;;19.60;34.20;;;;;;5057681;28;20024;-63
2021/04/12 06:52:20;;;;;;;5.32;2.58;;;19.70;34.20;;;;;;4978223;28;20073;-63
2021/04/12 06:55:17;;;;;;;5.55;2.60;;;19.70;34.30;;;;;;4994313;28;20041;-62
2021/04/12 06:57:43;;;;;;;5.05;2.22;;;19.60;34.30;;;;;;5064210;28;20051;-64
2021/04/12 07:00:38;;;;;;;5.00;2.13;;;19.60;34.30;;;;;;5073358;28;20472;-62
2021/04/12 07:03:09;;;;;;;;;;;19.70;34.40;;;;;;5015538;28;20393;-62
2021/04/12 07:05:49;;;;;;;5.45;2.70;;;19.70;34.40;;;;;;5058187;28;20706;-61
2021/04/12 07:08:29;;;;;;;5.90;2.80;;;19.70;34.20;;;;;;5069854;28;20028;-62
2021/04/12 07:11:21;;;;;;;5.80;2.92;;;19.70;34.40;;;;;;5067183;28;20036;-62
2021/04/12 07:14:08;;;;;;;7.30;2.50;;;19.70;34.40;;;;;;5048003;28;20484;-62
2021/04/12 07:16:52;;;;;;;4.85;2.08;;;19.80;34.40;;;;;;5068596;28;20032;-61
2021/04/12 07:19:42;;;;;;;5.47;2.50;;;19.80;34.40;;;;;;5057639;28;20043;-62
2021/04/12 07:22:34;;;;;;;5.30;2.35;;;19.80;34.40;;;;;;5069681;28;20056;-62
2021/04/12 07:25:40;;;;;;;4.63;2.47;;;19.80;34.40;;;;;;5057378;28;20124;-62
2021/04/12 07:28:26;;;;;;;6.82;2.20;;;19.80;34.40;;;;;;5071754;28;20112;-62
2021/04/12 07:31:16;;;;;;;6.43;2.75;;;19.90;34.40;;;;;;5070079;28;20020;-61
2021/04/12 07:34:00;;;;;;;5.85;2.72;;;19.80;34.40;;;;;;5072339;28;20021;-62
2021/04/12 07:36:35;;;;;;;5.60;2.40;;;19.90;34.40;;;;;;5075260;28;20044;-61
2021/04/12 07:39:31;;;;;;;4.55;2.10;;;19.90;34.40;;;;;;5075931;28;20024;-62
2021/04/12 07:42:34;;;;;;;4.90;2.17;;;19.90;34.40;;;;;;5077275;28;20040;-60
2021/04/12 07:45:24;;;;;;;7.82;2.28;;;20.00;34.30;;;;;;5080236;28;20033;-62
2021/04/12 07:48:06;;;;;;;7.32;2.17;;;20.00;34.30;;;;;;5078638;28;20115;-62
2021/04/12 07:50:37;;;;;;;4.95;2.20;;;20.00;34.40;;;;;;5071177;28;20074;-63
2021/04/12 07:53:22;;;;;;;6.72;2.00;;;20.00;34.40;;;;;;5056696;28;20244;-60
2021/04/12 07:56:05;;;;;;;5.30;2.28;;;20.00;34.50;;;;;;5067558;28;20655;-60
2021/04/12 07:59:04;;;;;;;5.15;2.33;;;20.00;34.50;;;;;;5077768;28;20037;-60
2021/04/12 08:02:04;;;;;;;4.38;2.17;;;20.00;34.60;;;;;;5060991;28;20064;-62
2021/04/12 08:04:47;;;;;;;6.53;2.30;;;20.00;34.50;;;;;;5054172;28;20029;-61
2021/04/12 08:07:31;;;;;;;4.82;2.25;;;20.00;34.70;;;;;;5054765;28;20021;-63
2021/04/12 08:10:34;;;;;;;4.28;2.15;;;20.00;34.60;;;;;;5055040;28;20395;-61
2021/04/12 08:13:37;;;;;;;6.43;2.05;;;20.00;34.70;;;;;;5054928;28;20032;-61
2021/04/12 08:16:15;;;;;;;6.53;2.65;;;20.00;34.70;;;;;;5068469;28;20384;-64
2021/04/12 08:19:02;;;;;;;3.67;1.63;;;20.00;34.70;;;;;;5074637;28;20112;-60
2021/04/12 08:21:33;;;;;;;3.72;1.70;;;20.10;34.60;;;;;;5074059;28;20048;-61
2021/04/12 08:24:18;;;;;;;4.72;2.05;;;20.10;34.60;;;;;;5074370;28;20172;-62
2021/04/12 08:26:57;;;;;;;3.80;1.50;;;20.10;34.40;;;;;;5073601;28;20021;-62
2021/04/12 08:29:59;;;;;;;5.63;2.17;;;20.00;34.70;;;;;;5075060;28;20491;-62
2021/04/12 08:33:02;;;;;;;4.68;1.80;;;20.10;34.80;;;;;;5073170;28;20369;-62
2021/04/12 08:35:54;;;;;;;5.15;2.22;;;20.00;34.80;;;;;;5075787;28;20032;-62
2021/04/12 08:38:57;;;;;;;5.00;1.80;;;20.00;34.70;;;;;;5075840;28;20085;-62
2021/04/12 08:41:42;;;;;;;5.88;2.22;;;20.00;34.70;;;;;;5073143;28;20052;-62
2021/04/12 08:44:12;;;;;;;4.57;2.17;;;20.00;34.70;;;;;;5073659;28;20111;-62
2021/04/12 08:46:49;;;;;;;5.47;2.40;;;20.00;34.70;;;;;;5074835;28;20040;-62
2021/04/12 08:49:35;;;;;;;5.07;1.80;;;20.00;34.70;;;;;;5078955;28;20024;-62
2021/04/12 08:52:13;;;;;;;6.50;2.50;;;20.00;34.70;;;;;;5075780;28;20028;-63
2021/04/12 08:54:41;;;;;;;6.95;2.10;;;20.00;34.70;;;;;;5075556;28;20027;-62
2021/04/12 08:57:34;;;;;;;5.28;1.80;;;19.90;34.70;;;;;;5074958;28;20033;-62
2021/04/12 09:00:50;;;;;;;4.18;1.67;;;19.90;34.80;;;;;;5075588;28;20016;-62
2021/04/12 09:03:28;;;;;;;;;;;20.00;34.70;;;;;;5033734;28;20060;-62
2021/04/12 09:06:21;;;;;;;5.25;2.13;;;20.00;34.70;;;;;;5071050;28;20232;-62
2021/04/12 09:09:18;;;;;;;5.07;2.00;;;20.00;34.70;;;;;;5080044;28;20021;-62
2021/04/12 09:12:08;;;;;;;4.05;1.83;;;20.00;34.70;;;;;;5078672;28;20017;-61
2021/04/12 09:14:58;;;;;;;5.85;2.20;;;20.00;34.70;;;;;;5076632;28;20501;-61
2021/04/12 09:17:42;;;;;;;5.75;1.88;;;20.10;34.60;;;;;;5061207;28;20060;-60
2021/04/12 09:20:32;;;;;;;4.25;1.88;;;20.10;34.60;;;;;;5083181;28;20034;-61
2021/04/12 09:23:39;;;;;;;3.72;1.73;;;20.10;34.60;;;;;;5078878;28;20114;-59
2021/04/12 09:26:38;;;;;;;4.68;2.30;;;20.00;34.60;;;;;;5068601;28;20028;-60
2021/04/12 09:29:32;;;;;;;5.47;1.92;;;20.00;34.70;;;;;;5074575;28;20051;-62
2021/04/12 09:32:29;;;;;;;4.32;1.80;;;20.00;34.80;;;;;;5079294;28;20016;-60
2021/04/12 09:35:22;;;;;;;8.00;2.00;;;20.00;34.70;;;;;;5055774;28;20527;-60
2021/04/12 09:38:02;;;;;;;5.10;2.30;;;20.10;34.70;;;;;;5072204;28;20044;-60
2021/04/12 09:40:43;;;;;;;4.68;1.50;;;20.00;34.70;;;;;;5060964;28;20029;-60
2021/04/12 09:43:49;;;;;;;5.15;1.50;;;20.00;34.80;;;;;;5082282;28;20449;-61
2021/04/12 09:46:52;;;;;;;4.03;1.90;;;20.00;34.80;;;;;;5067802;28;20116;-62
2021/04/12 09:49:54;;;;;;;4.07;1.60;;;20.00;34.80;;;;;;5073539;28;20062;-63
2021/04/12 09:52:51;;;;;;;4.72;2.25;;;20.00;34.80;;;;;;5053924;28;20061;-60
2021/04/12 09:55:54;;;;;;;4.47;1.52;;;20.00;34.80;;;;;;5055845;28;20064;-60
2021/04/12 09:58:28;;;;;;;6.25;2.05;;;20.10;34.70;;;;;;5060631;28;20037;-61
2021/04/12 10:01:02;;;;;;;5.15;2.05;;;20.20;34.60;;;;;;5064007;28;20024;-59
2021/04/12 10:03:52;;;;;;;4.78;1.73;;;20.20;34.60;;;;;;5064207;28;20491;-60
2021/04/12 10:06:18;;;;;;;7.00;1.92;;;20.10;34.60;;;;;;5067738;28;20017;-63
2021/04/12 10:09:12;;;;;;;5.50;1.70;;;20.20;34.60;;;;;;5074034;28;20032;-62
2021/04/12 10:12:11;;;;;;;5.95;1.83;;;20.30;34.50;;;;;;5055573;28;20128;-61
2021/04/12 10:14:45;;;;;;;4.40;1.60;;;20.30;34.50;;;;;;5067348;28;20039;-61
2021/04/12 10:17:23;;;;;;;4.18;1.90;;;20.30;34.40;;;;;;5066758;28;20036;-61
2021/04/12 10:19:59;;;;;;;5.55;1.50;;;20.50;34.30;;;;;;5060557;28;20170;-62
2021/04/12 10:22:43;;;;;;;4.63;1.80;;;20.50;34.30;;;;;;5055877;28;20182;-61
2021/04/12 10:25:47;;;;;;;5.03;1.70;;;20.50;34.40;;;;;;5070526;28;20046;-61
2021/04/12 10:28:23;;;;;;;4.57;1.67;;;20.50;34.40;;;;;;5029108;28;20032;-61
2021/04/12 10:30:54;;;;;;;4.10;1.58;;;20.40;34.40;;;;;;5060575;28;20596;-62
2021/04/12 10:33:28;;;;;;;4.13;1.55;;;20.40;34.40;;;;;;5072172;28;20063;-62
2021/04/12 10:36:01;;;;;;;6.20;2.08;;;20.50;34.30;;;;;;5078097;28;20068;-61
2021/04/12 10:38:31;;;;;;;4.85;1.58;;;20.50;34.30;;;;;;5066376;28;20041;-61
2021/04/12 10:41:15;;;;;;;8.23;1.88;;;20.60;34.20;;;;;;5068981;28;20044;-61
2021/04/12 10:44:06;;;;;;;4.10;1.58;;;20.60;34.20;;;;;;5060421;28;20024;-64
2021/04/12 10:46:58;;;;;;;4.25;1.45;;;20.60;34.20;;;;;;5067106;28;20769;-62
2021/04/12 10:49:34;;;;;;;6.05;1.67;;;20.60;34.20;;;;;;5058749;28;20035;-64
2021/04/12 10:52:17;;;;;;;4.60;1.83;;;20.70;34.10;;;;;;5066925;28;20120;-63
2021/04/12 10:54:43;;;;;;;3.57;1.60;;;20.60;34.10;;;;;;5068525;28;20035;-63
2021/04/12 10:57:30;;;;;;;4.03;1.85;;;20.60;34.30;;;;;;5059737;28;20295;-63
2021/04/12 11:00:01;;;;;;;3.92;1.45;;;20.60;34.30;;;;;;5070456;28;20031;-63
2021/04/12 11:03:01;;;;;;;3.75;1.60;;;20.50;34.30;;;;;;5083825;28;20124;-63
2021/04/12 11:05:29;;;;;;;3.88;1.58;;;20.60;34.20;;;;;;5078760;28;20025;-64
2021/04/12 11:08:24;;;;;;;2.20;1.25;;;20.50;34.20;;;;;;5071636;28;20085;-64
2021/04/12 11:11:19;;;;;;;3.58;1.58;;;20.50;34.30;;;;;;5066953;28;20072;-62
2021/04/12 11:14:03;;;;;;;;;;;20.50;34.30;;;;;;5063859;28;20032;-62
2021/04/12 11:16:45;;;;;;;4.47;1.83;;;20.50;34.30;;;;;;5075451;28;19923;-61
2021/04/12 11:19:19;;;;;;;5.47;1.50;;;20.50;34.40;;;;;;5074938;28;20390;-61
2021/04/12 11:22:06;;;;;;;4.53;1.80;;;20.50;34.40;;;;;;5069825;28;20045;-62
2021/04/12 11:24:55;;;;;;;4.90;1.40;;;20.50;34.40;;;;;;5063060;28;20040;-61
2021/04/12 11:27:44;;;;;;;4.38;1.52;;;20.50;34.40;;;;;;5059364;28;20211;-61
2021/04/12 11:30:17;;;;;;;4.45;1.83;;;20.50;34.30;;;;;;5056868;28;20023;-61
2021/04/12 11:33:14;;;;;;;4.82;1.42;;;20.50;34.40;;;;;;5063803;28;20479;-60
2021/04/12 11:35:54;;;;;;;4.30;1.40;;;20.40;34.40;;;;;;5066676;28;20354;-62
2021/04/12 11:38:25;;;;;;;4.03;1.50;;;20.40;34.50;;;;;;5072842;28;20029;-60
2021/04/12 11:41:02;;;;;;;3.60;1.30;;;20.40;34.50;;;;;;5070539;28;20024;-61
2021/04/12 11:43:32;;;;;;;2.83;1.48;;;20.40;34.50;;;;;;5081511;28;20190;-63
2021/04/12 11:46:28;;;;;;;3.17;1.17;;;20.30;34.50;;;;;;5077536;28;20043;-62
2021/04/12 11:49:14;;;;;;;5.35;1.50;;;20.30;34.60;;;;;;5063736;28;20384;-61
2021/04/12 11:51:57;;;;;;;3.25;1.33;;;20.30;34.60;;;;;;5074870;28;20155;-63
2021/04/12 11:54:44;;;;;;;4.38;1.42;;;20.30;34.60;;;;;;5066319;28;20029;-61
2021/04/12 11:57:33;;;;;;;3.85;1.48;;;20.30;34.60;;;;;;5061468;28;20031;-62
2021/04/12 12:00:15;;;;;;;3.03;1.48;;;20.40;34.80;;;;;;5072035;28;20032;-67
2021/04/12 12:02:57;;;;;;;4.03;1.42;;;20.40;34.40;;;;;;5069478;28;20111;-61
2021/04/12 12:05:32;;;;;;;4.63;1.55;;;20.40;34.40;;;;;;5058423;28;20116;-63
2021/04/12 12:08:06;;;;;;;4.65;1.60;;;20.50;34.30;;;;;;5076057;28;20031;-62
2021/04/12 12:10:49;;;;;;;3.92;1.25;;;20.50;34.20;;;;;;5070260;28;20495;-62
2021/04/12 12:13:43;;;;;;;3.33;1.38;;;20.60;34.20;;;;;;5062965;28;20021;-62
2021/04/12 12:16:17;;;;;;;3.40;1.27;;;20.60;34.20;;;;;;5071636;28;20116;-66
2021/04/12 12:18:45;;;;;;;;;;;20.70;34.20;;;;;;5074442;28;20024;-64
2021/04/12 12:21:33;;;;;;;3.50;1.40;;;20.80;34.00;;;;;;5070812;28;20291;-61
2021/04/12 12:24:08;;;;;;;5.40;1.20;;;20.80;34.00;;;;;;5073603;28;20480;-61
2021/04/12 12:27:03;;;;;;;5.82;1.40;;;20.90;33.90;;;;;;5085875;28;20447;-61
2021/04/12 12:29:42;;;;;;;2.42;1.00;;;20.90;33.80;;;;;;5072077;28;20486;-61
2021/04/12 12:32:18;;;;;;;2.47;1.25;;;21.00;33.90;;;;;;5054369;28;20032;-61
2021/04/12 12:35:16;;;;;;;5.38;1.40;;;21.00;33.80;;;;;;5070029;28;20020;-64
2021/04/12 12:38:02;;;;;;;5.88;1.33;;;20.90;33.90;;;;;;5064884;28;20491;-64
2021/04/12 12:40:56;;;;;;;3.65;1.17;;;20.90;34.00;;;;;;5077646;28;20074;-62
2021/04/12 12:43:31;;;;;;;4.43;1.50;;;20.90;34.00;;;;;;5076465;28;20036;-62
2021/04/12 12:46:07;;;;;;;2.95;0.95;;;20.90;34.00;;;;;;5063440;28;20037;-63
2021/04/12 12:48:40;;;;;;;3.92;1.10;;;21.00;33.90;;;;;;5062812;28;20512;-65
2021/04/12 12:51:23;;;;;;;5.80;1.65;;;21.10;33.80;;;;;;5061285;28;20082;-63
2021/04/12 12:53:56;;;;;;;3.05;1.23;;;21.10;33.70;;;;;;5056510;28;20361;-63
2021/04/12 12:56:26;;;;;;;3.83;1.50;;;21.20;33.60;;;;;;5065089;28;20028;-62
2021/04/12 12:59:02;;;;;;;3.72;1.30;;;21.30;33.50;;;;;;5058666;28;20037;-61
2021/04/12 13:01:39;;;;;;;3.47;0.95;;;21.20;33.70;;;;;;5071842;28;20064;-62
2021/04/12 13:04:11;;;;;;;2.95;1.30;;;21.20;33.80;;;;;;5063412;28;20127;-62
2021/04/12 13:06:38;;;;;;;2.65;1.23;;;21.30;33.60;;;;;;5066266;28;20127;-62
2021/04/12 13:09:11;;;;;;;5.95;1.33;;;21.40;33.50;;;;;;5069995;28;20392;-62
2021/04/12 13:11:46;;;;;;;4.65;1.60;;;21.30;33.60;;;;;;5053530;28;20120;-63
2021/04/12 13:14:33;;;;;;;3.58;1.20;;;21.40;33.60;;;;;;5063612;28;20033;-62
2021/04/12 13:17:02;;;;;;;4.45;1.05;;;21.40;33.50;;;;;;5069272;28;20115;-63
2021/04/12 13:19:44;;;;;;;4.72;1.15;;;21.30;33.70;;;;;;5074123;28;20025;-64
2021/04/12 13:22:10;;;;;;;4.35;1.33;;;21.20;33.80;;;;;;5067298;28;20072;-63
2021/04/12 13:24:37;;;;;;;2.03;0.90;;;21.30;33.70;;;;;;5067706;28;20056;-63
2021/04/12 13:27:11;;;;;;;2.33;0.98;;;21.40;33.60;;;;;;5057229;28;20448;-61
2021/04/12 13:29:47;;;;;;;4.45;1.13;;;21.30;33.80;;;;;;5063221;28;20025;-60
2021/04/12 13:32:22;;;;;;;3.15;1.10;;;21.30;33.70;;;;;;5081005;28;20024;-61
2021/04/12 13:35:05;;;;;;;3.65;1.30;;;21.50;33.60;;;;;;5084185;28;20029;-60
2021/04/12 13:37:54;;;;;;;4.38;1.20;;;21.30;33.70;;;;;;5067773;28;20037;-61
2021/04/12 13:40:22;;;;;;;2.95;1.25;;;21.30;33.80;;;;;;5074713;28;20479;-62
2021/04/12 13:42:54;;;;;;;4.65;1.50;;;21.30;33.70;;;;;;5071955;28;20084;-68
2021/04/12 13:45:31;;;;;;;3.45;1.27;;;21.20;33.90;;;;;;5073626;28;20029;-62
2021/04/12 13:48:21;;;;;;;5.35;1.42;;;21.10;34.00;;;;;;5058004;28;20032;-64
2021/04/12 13:50:59;;;;;;;3.72;1.10;;;21.00;34.20;;;;;;5052033;28;20040;-63
2021/04/12 13:53:49;;;;;;;3.20;1.20;;;21.10;34.10;;;;;;5073658;28;20525;-65
2021/04/12 13:56:44;;;;;;;3.85;1.30;;;21.00;34.10;;;;;;5069100;28;20583;-66
2021/04/12 13:59:18;;;;;;;5.47;1.40;;;21.00;34.20;;;;;;5066708;28;20136;-63
2021/04/12 14:01:49;;;;;;;3.85;1.00;;;21.00;34.20;;;;;;5072815;28;20024;-64
2021/04/12 14:04:20;;;;;;;5.65;1.30;;;21.00;34.20;;;;;;5079287;28;20415;-63
2021/04/12 14:06:59;;;;;;;3.78;1.10;;;20.80;34.40;;;;;;5064992;28;20112;-63
2021/04/12 14:09:42;;;;;;;5.40;1.33;;;20.80;34.60;;;;;;5069666;28;20027;-64
2021/04/12 14:12:24;;;;;;;4.63;1.50;;;20.70;34.70;;;;;;5079239;28;20625;-62
2021/04/12 14:14:52;;;;;;;3.78;1.50;;;20.80;34.50;;;;;;5071840;28;20031;-63
2021/04/12 14:17:47;;;;;;;4.40;1.50;;;20.90;34.30;;;;;;5075461;28;20128;-67
2021/04/12 14:20:16;;;;;;;5.50;1.40;;;20.90;34.10;;;;;;5071928;28;20016;-68
2021/04/12 14:22:43;;;;;;;3.63;1.30;;;20.90;34.30;;;;;;5073241;28;20052;-68